createdAt,value
2018-09-24T00:01:07.847Z,93587.45
2018-09-24T00:03:36.093Z,93579.83
2018-09-24T00:06:04.137Z,93576.11
2018-09-24T00:08:32.277Z,93573.61
2018-09-24T00:11:00.365Z,93570.30
2018-09-24T00:13:28.434Z,93567.67
2018-09-24T00:15:56.448Z,93567.33
2018-09-24T00:18:24.515Z,93559.24
2018-09-24T00:20:52.512Z,93554.94
2018-09-24T00:23:20.634Z,93560.11
2018-09-24T00:25:48.652Z,93564.91
2018-09-24T00:28:16.909Z,93554.72
2018-09-24T00:30:45.181Z,93553.38
2018-09-24T00:33:13.281Z,93547.88
2018-09-24T00:35:41.387Z,93550.09
2018-09-24T00:38:09.523Z,93542.42
2018-09-24T00:40:37.629Z,93541.52
2018-09-24T00:43:05.839Z,93544.72
2018-09-24T00:45:33.919Z,93545.35
2018-09-24T00:48:02.309Z,93544.34
2018-09-24T00:50:30.521Z,93545.39
2018-09-24T00:52:58.554Z,93532.49
2018-09-24T00:55:26.676Z,93526.59
2018-09-24T00:57:54.725Z,93519.05
2018-09-24T01:00:22.806Z,93519.31
2018-09-24T01:02:50.954Z,93515.21
2018-09-24T01:05:18.971Z,93515.63
2018-09-24T01:07:46.972Z,93525.15
2018-09-24T01:10:15.670Z,93515.88
2018-09-24T01:12:44.690Z,93512.96
2018-09-24T01:15:12.812Z,93519.27
2018-09-24T01:17:40.811Z,93519.70
2018-09-24T01:20:09.913Z,93517.55
2018-09-24T01:22:37.883Z,93511.52
2018-09-24T01:25:06.077Z,93512.56
2018-09-24T01:27:34.290Z,93510.28
2018-09-24T01:30:02.413Z,93506.88
2018-09-24T01:32:30.470Z,93497.45
2018-09-24T01:34:58.493Z,93491.80
2018-09-24T01:37:26.580Z,93490.06
2018-09-24T01:39:54.632Z,93475.52
2018-09-24T01:42:22.633Z,93476.09
2018-09-24T01:44:50.720Z,93471.41
2018-09-24T01:47:18.892Z,93459.97
2018-09-24T01:49:47.014Z,93457.30
2018-09-24T01:52:14.984Z,93453.78
2018-09-24T02:00:09.947Z,93432.91
2018-09-24T02:02:37.975Z,93435.19
2018-09-24T02:05:10.954Z,93429.86
2018-09-24T02:07:38.979Z,93438.58
2018-09-24T02:10:07.112Z,93443.94
2018-09-24T02:12:35.124Z,93443.05
2018-09-24T02:15:03.240Z,93443.11
2018-09-24T02:17:31.360Z,93445.46
2018-09-24T02:19:59.463Z,93444.84
2018-09-24T02:22:29.518Z,93446.78
2018-09-24T02:24:58.512Z,93442.56
2018-09-24T02:27:26.891Z,93435.86
2018-09-24T02:29:54.953Z,93437.70
2018-09-24T02:32:23.047Z,93436.77
2018-09-24T02:34:53.700Z,93434.16
2018-09-24T02:37:22.117Z,93436.79
2018-09-24T02:39:50.607Z,93434.59
2018-09-24T02:42:18.586Z,93430.66
2018-09-24T02:44:48.679Z,93424.72
2018-09-24T02:47:16.673Z,93430.83
2018-09-24T02:49:44.683Z,93430.77
2018-09-24T02:52:12.721Z,93439.11
2018-09-24T02:54:40.752Z,93437.17
2018-09-24T02:57:08.884Z,93434.51
2018-09-24T02:59:37.939Z,93436.93
2018-09-24T03:02:06.011Z,93432.42
2018-09-24T03:04:34.097Z,93432.14
2018-09-24T03:07:02.113Z,93428.53
2018-09-24T03:09:30.419Z,93428.59
2018-09-24T03:11:58.552Z,93421.38
2018-09-24T03:14:27.817Z,93420.88
2018-09-24T03:16:55.893Z,93412.85
2018-09-24T03:19:24.238Z,93405.23
2018-09-24T03:21:52.742Z,93398.57
2018-09-24T03:24:20.908Z,93397.92
2018-09-24T03:26:49.011Z,93396.96
2018-09-24T03:29:23.485Z,93385.14
2018-09-24T03:31:52.151Z,93399.11
2018-09-24T03:34:20.324Z,93399.39
2018-09-24T03:36:49.031Z,93395.32
2018-09-24T03:39:17.869Z,93397.66
2018-09-24T03:41:45.999Z,93388.28
2018-09-24T03:44:14.072Z,93389.53
2018-09-24T03:46:42.435Z,93386.03
2018-09-24T03:49:10.976Z,93385.20
2018-09-24T03:51:39.433Z,93383.55
2018-09-24T03:54:08.773Z,93388.52
2018-09-24T03:56:36.944Z,93383.33
2018-09-24T03:59:05.106Z,93375.89
2018-09-24T04:01:33.166Z,93379.98
2018-09-24T04:04:07.073Z,93379.56
2018-09-24T04:06:40.636Z,93382.53
2018-09-24T04:09:14.576Z,93382.19
2018-09-24T04:11:48.482Z,93385.83
2018-09-24T04:14:21.992Z,93381.92
2018-09-24T04:16:55.570Z,93386.66
2018-09-24T04:19:29.465Z,93390.52
2018-09-24T04:22:02.908Z,93394.84
2018-09-24T04:24:36.728Z,93384.99
2018-09-24T04:27:10.348Z,93388.11
2018-09-24T04:29:44.200Z,93389.62
2018-09-24T04:32:17.733Z,93383.80
2018-09-24T04:34:51.183Z,93389.87
2018-09-24T04:37:24.615Z,93382.96
2018-09-24T04:39:58.224Z,93380.00
2018-09-24T04:42:31.631Z,93377.92
2018-09-24T04:45:05.368Z,93377.37
2018-09-24T04:47:38.919Z,93373.78
2018-09-24T04:50:12.706Z,93373.78
2018-09-24T04:52:46.348Z,93380.14
2018-09-24T04:55:19.897Z,93378.19
2018-09-24T04:57:53.488Z,93377.05
2018-09-24T05:00:27.074Z,93380.39
2018-09-24T05:03:00.531Z,93385.15
2018-09-24T05:05:34.966Z,93386.45
2018-09-24T05:08:09.680Z,93389.24
2018-09-24T05:10:43.454Z,93394.02
2018-09-24T05:13:17.052Z,93402.01
2018-09-24T05:15:51.747Z,93399.37
2018-09-24T05:18:25.410Z,93401.95
2018-09-24T05:20:59.349Z,93394.97
2018-09-24T05:23:33.078Z,93396.34
2018-09-24T05:26:07.057Z,93394.11
2018-09-24T05:28:40.654Z,93391.02
2018-09-24T05:31:14.325Z,93378.85
2018-09-24T05:33:48.199Z,93387.48
2018-09-24T05:36:22.018Z,93380.86
2018-09-24T05:38:55.646Z,93385.50
2018-09-24T05:41:29.261Z,93383.46
2018-09-24T05:44:03.003Z,93382.84
2018-09-24T05:46:36.618Z,93373.92
2018-09-24T05:49:10.164Z,93363.20
2018-09-24T05:51:43.650Z,93361.72
2018-09-24T05:54:17.418Z,93366.34
2018-09-24T05:56:50.996Z,93367.66
2018-09-24T05:59:24.347Z,93373.00
2018-09-24T06:01:58.055Z,93376.24
2018-09-24T06:04:31.717Z,93378.78
2018-09-24T06:07:05.463Z,93377.02
2018-09-24T06:09:39.136Z,93376.22
2018-09-24T06:12:12.799Z,93376.92
2018-09-24T06:14:46.440Z,93373.50
2018-09-24T06:17:20.210Z,93373.06
2018-09-24T06:19:53.691Z,93365.31
2018-09-24T06:22:27.663Z,93365.34
2018-09-24T06:25:01.165Z,93366.75
2018-09-24T06:27:34.673Z,93367.70
2018-09-24T06:30:08.303Z,93361.17
2018-09-24T06:32:42.278Z,93365.13
2018-09-24T06:35:16.139Z,93365.16
2018-09-24T06:37:49.891Z,93367.95
2018-09-24T06:40:24.059Z,93369.13
2018-09-24T06:42:57.862Z,93358.61
2018-09-24T06:45:31.522Z,93367.04
2018-09-24T06:48:05.137Z,93362.92
2018-09-24T06:50:38.699Z,93355.34
2018-09-24T06:53:12.364Z,93360.04
2018-09-24T06:55:45.944Z,93367.11
2018-09-24T06:58:19.763Z,93367.48
2018-09-24T07:00:53.554Z,93378.97
2018-09-24T07:03:27.230Z,93367.81
2018-09-24T07:06:01.072Z,93374.00
2018-09-24T07:08:34.845Z,93375.66
2018-09-24T07:11:08.599Z,93367.60
2018-09-24T07:13:42.321Z,93361.59
2018-09-24T07:16:16.180Z,93362.01
2018-09-24T07:18:50.080Z,93366.25
2018-09-24T07:21:23.882Z,93356.59
2018-09-24T07:23:57.626Z,93351.25
2018-09-24T07:26:31.296Z,93355.27
2018-09-24T07:29:04.985Z,93360.27
2018-09-24T07:31:38.561Z,93357.09
2018-09-24T07:34:12.665Z,93356.52
2018-09-24T07:36:46.478Z,93351.12
2018-09-24T07:39:20.352Z,93357.19
2018-09-24T07:41:54.439Z,93352.53
2018-09-24T07:44:28.383Z,93349.16
2018-09-24T07:47:01.996Z,93349.23
2018-09-24T07:49:36.217Z,93354.39
2018-09-24T07:52:09.869Z,93350.11
2018-09-24T07:54:43.683Z,93350.77
2018-09-24T07:57:17.523Z,93341.98
2018-09-24T07:59:51.767Z,93343.41
2018-09-24T08:02:25.576Z,93342.36
2018-09-24T08:04:59.566Z,93333.23
2018-09-24T08:07:33.262Z,93337.49
2018-09-24T08:10:07.196Z,93331.84
2018-09-24T08:12:43.037Z,93336.96
2018-09-24T08:15:27.774Z,93332.73
2018-09-24T08:18:07.591Z,93326.46
2018-09-24T08:20:55.047Z,93336.97
2018-09-24T08:23:40.339Z,93337.64
2018-09-24T08:26:26.882Z,93325.94
2018-09-24T08:29:07.214Z,93322.54
2018-09-24T08:31:49.662Z,93332.30
2018-09-24T08:34:25.358Z,93333.80
2018-09-24T08:36:59.288Z,93333.21
2018-09-24T08:39:33.289Z,93320.96
2018-09-24T08:42:06.884Z,93316.83
2018-09-24T08:44:40.954Z,93311.98
2018-09-24T08:47:14.895Z,93314.72
2018-09-24T08:49:48.597Z,93317.94
2018-09-24T08:52:22.815Z,93311.16
2018-09-24T08:54:56.318Z,93310.26
2018-09-24T08:57:30.257Z,93311.47
2018-09-24T09:00:04.287Z,93309.20
2018-09-24T09:02:38.525Z,93311.17
2018-09-24T09:05:12.110Z,93310.25
2018-09-24T09:07:45.834Z,93302.97
2018-09-24T09:10:19.546Z,93305.97
2018-09-24T09:12:53.153Z,93302.75
2018-09-24T09:15:26.770Z,93304.26
2018-09-24T09:18:00.382Z,93295.45
2018-09-24T09:20:33.965Z,93314.52
2018-09-24T09:23:07.604Z,93295.06
2018-09-24T09:25:41.269Z,93297.34
2018-09-24T09:28:15.095Z,93296.27
2018-09-24T09:30:48.875Z,93300.32
2018-09-24T09:33:22.578Z,93302.73
2018-09-24T09:35:56.224Z,93299.78
2018-09-24T09:38:30.016Z,93294.81
2018-09-24T09:41:03.682Z,93302.49
2018-09-24T09:43:38.095Z,93306.28
2018-09-24T09:46:11.925Z,93304.53
2018-09-24T09:48:46.030Z,93298.00
2018-09-24T09:51:19.789Z,93290.13
2018-09-24T09:53:54.568Z,93299.20
2018-09-24T09:56:28.604Z,93286.89
2018-09-24T09:59:02.419Z,93292.39
2018-09-24T10:01:36.172Z,93289.34
2018-09-24T10:04:10.170Z,93284.02
2018-09-24T10:06:43.832Z,93278.98
2018-09-24T10:09:17.535Z,93272.95
2018-09-24T10:11:51.225Z,93266.31
2018-09-24T10:14:24.773Z,93266.50
2018-09-24T10:16:58.893Z,93255.31
2018-09-24T10:19:32.607Z,93265.91
2018-09-24T10:22:06.653Z,93256.45
2018-09-24T10:24:40.575Z,93262.95
2018-09-24T10:27:14.518Z,93259.12
2018-09-24T10:29:48.155Z,93256.02
2018-09-24T10:32:22.085Z,93236.74
2018-09-24T10:34:55.818Z,93241.48
2018-09-24T10:37:29.753Z,93244.88
2018-09-24T10:40:03.385Z,93244.97
2018-09-24T10:42:37.214Z,93234.85
2018-09-24T10:45:12.515Z,93230.98
2018-09-24T10:47:46.432Z,93235.86
2018-09-24T10:50:20.055Z,93231.52
2018-09-24T10:52:53.590Z,93236.54
2018-09-24T10:55:27.077Z,93239.27
2018-09-24T10:58:00.681Z,93233.23
2018-09-24T11:00:34.095Z,93230.02
2018-09-24T11:03:07.690Z,93228.62
2018-09-24T11:05:41.484Z,93234.30
2018-09-24T11:08:15.034Z,93231.55
2018-09-24T11:10:48.809Z,93236.47
2018-09-24T11:13:22.642Z,93230.02
2018-09-24T11:15:56.493Z,93235.16
2018-09-24T11:18:29.852Z,93229.41
2018-09-24T11:21:03.584Z,93229.73
2018-09-24T11:23:37.277Z,93235.03
2018-09-24T11:26:10.812Z,93228.44
2018-09-24T11:28:44.774Z,93216.05
2018-09-24T11:31:18.536Z,93210.91
2018-09-24T11:33:52.162Z,93213.94
2018-09-24T11:36:26.161Z,93220.81
2018-09-24T11:38:59.992Z,93215.48
2018-09-24T11:41:33.612Z,93210.10
2018-09-24T11:44:07.531Z,93214.58
2018-09-24T11:46:41.380Z,93215.55
2018-09-24T11:49:15.310Z,93207.41
2018-09-24T11:51:49.625Z,93205.19
2018-09-24T11:54:24.789Z,93209.09
2018-09-24T11:56:59.766Z,93209.81
2018-09-24T11:59:34.927Z,93209.42
2018-09-24T12:02:09.697Z,93208.23
2018-09-24T12:04:43.300Z,93211.14
2018-09-24T12:07:17.865Z,93220.27
2018-09-24T12:09:51.575Z,93220.34
2018-09-24T12:12:25.809Z,93239.05
2018-09-24T12:14:59.345Z,93238.58
2018-09-24T12:17:32.991Z,93245.67
2018-09-24T12:20:06.753Z,93253.88
2018-09-24T12:22:40.316Z,93263.63
2018-09-24T12:25:13.817Z,93272.09
2018-09-24T12:27:47.554Z,93279.98
2018-09-24T12:30:21.327Z,93294.78
2018-09-24T12:32:55.024Z,93295.30
2018-09-24T12:35:28.559Z,93300.47
2018-09-24T12:38:02.146Z,93301.42
2018-09-24T12:40:35.584Z,93300.47
2018-09-24T12:43:09.082Z,93313.53
2018-09-24T12:45:43.425Z,93307.55
2018-09-24T12:48:17.227Z,93327.64
2018-09-24T12:50:51.056Z,93332.95
2018-09-24T12:53:24.478Z,93341.66
2018-09-24T12:55:58.197Z,93353.38
2018-09-24T12:58:31.784Z,93355.73
2018-09-24T13:01:06.016Z,93362.61
2018-09-24T13:03:39.814Z,93366.34
2018-09-24T13:06:13.560Z,93396.75
2018-09-24T13:08:47.131Z,93406.55
2018-09-24T13:11:20.790Z,93412.91
2018-09-24T13:13:54.401Z,93425.64
2018-09-24T13:16:28.172Z,93438.59
2018-09-24T13:19:01.970Z,93450.22
2018-09-24T13:21:35.616Z,93465.52
2018-09-24T13:24:09.316Z,93475.05
2018-09-24T13:26:43.174Z,93491.30
2018-09-24T13:29:17.080Z,93498.88
2018-09-24T13:31:51.050Z,93508.84
2018-09-24T13:34:25.013Z,93500.14
2018-09-24T13:36:58.636Z,93534.74
2018-09-24T13:39:32.223Z,93531.09
2018-09-24T13:42:05.955Z,93527.42
2018-09-24T13:44:39.548Z,93547.48
2018-09-24T13:47:13.111Z,93547.37
2018-09-24T13:49:46.674Z,93567.53
2018-09-24T13:52:20.211Z,93566.52
2018-09-24T13:54:53.812Z,93566.04
2018-09-24T13:57:27.496Z,93556.81
2018-09-24T14:00:01.010Z,93562.78
2018-09-24T14:02:34.788Z,93573.39
2018-09-24T14:05:08.602Z,93586.86
2018-09-24T14:07:42.365Z,93625.89
2018-09-24T14:10:15.838Z,93610.52
2018-09-24T14:12:49.606Z,93603.39
2018-09-24T14:15:23.512Z,93606.66
2018-09-24T14:17:57.438Z,93618.62
2018-09-24T14:20:31.169Z,93633.76
2018-09-24T14:23:04.962Z,93634.21
2018-09-24T14:25:38.579Z,93635.47
2018-09-24T14:28:12.486Z,93646.20
2018-09-24T14:30:46.157Z,93655.60
2018-09-24T14:33:19.804Z,93661.05
2018-09-24T14:35:53.597Z,93678.44
2018-09-24T14:38:27.233Z,93696.58
2018-09-24T14:41:00.919Z,93695.48
2018-09-24T14:43:34.662Z,93691.83
2018-09-24T14:46:08.410Z,93691.09
2018-09-24T14:48:42.203Z,93684.80
2018-09-24T14:51:15.843Z,93701.55
2018-09-24T14:53:49.460Z,93730.02
2018-09-24T14:56:23.062Z,93738.95
2018-09-24T14:58:56.622Z,93739.90
2018-09-24T15:01:30.343Z,93748.57
2018-09-24T15:04:04.044Z,93735.48
2018-09-24T15:06:37.891Z,93762.33
2018-09-24T15:09:12.909Z,93760.23
2018-09-24T15:11:46.706Z,93773.48
2018-09-24T15:14:20.382Z,93787.48
2018-09-24T15:16:54.118Z,93793.70
2018-09-24T15:19:27.837Z,93778.31
2018-09-24T15:22:01.481Z,93776.56
2018-09-24T15:24:35.147Z,93784.89
2018-09-24T15:27:08.693Z,93791.52
2018-09-24T15:29:42.711Z,93784.92
2018-09-24T15:32:16.289Z,93797.30
2018-09-24T15:34:50.113Z,93798.22
2018-09-24T15:37:24.303Z,93796.75
2018-09-24T15:39:58.037Z,93800.91
2018-09-24T15:42:31.757Z,93788.05
2018-09-24T15:45:05.552Z,93792.86
2018-09-24T15:47:39.126Z,93800.71
2018-09-24T15:50:12.786Z,93815.83
2018-09-24T15:52:46.708Z,93828.11
2018-09-24T15:55:20.724Z,93835.06
2018-09-24T15:57:54.354Z,93827.05
2018-09-24T16:00:28.296Z,93836.16
2018-09-24T16:03:02.172Z,93838.45
2018-09-24T16:05:36.096Z,93852.07
2018-09-24T16:08:09.780Z,93857.09
2018-09-24T16:10:43.359Z,93848.16
2018-09-24T16:13:17.089Z,93849.60
2018-09-24T16:15:51.018Z,93839.68
2018-09-24T16:18:24.776Z,93839.47
2018-09-24T16:20:58.802Z,93850.28
2018-09-24T16:23:32.604Z,93848.59
2018-09-24T16:26:06.185Z,93851.81
2018-09-24T16:28:39.957Z,93861.27
2018-09-24T16:31:14.301Z,93865.43
2018-09-24T16:33:48.731Z,93877.36
2018-09-24T16:36:22.767Z,93870.87
2018-09-24T16:38:56.870Z,93879.03
2018-09-24T16:41:30.728Z,93886.47
2018-09-24T16:44:04.606Z,93876.55
2018-09-24T16:46:38.674Z,93881.00
2018-09-24T16:49:12.352Z,93887.73
2018-09-24T16:51:46.202Z,93880.48
2018-09-24T16:54:20.035Z,93882.34
2018-09-24T16:56:53.776Z,93896.05
2018-09-24T16:59:27.543Z,93895.41
2018-09-24T17:02:01.380Z,93892.70
2018-09-24T17:04:34.896Z,93896.06
2018-09-24T17:07:08.573Z,93897.84
2018-09-24T17:09:42.248Z,93907.02
2018-09-24T17:12:15.849Z,93917.77
2018-09-24T17:14:49.718Z,93928.41
2018-09-24T17:17:23.420Z,93925.25
2018-09-24T17:19:57.142Z,93926.55
2018-09-24T17:22:30.896Z,93933.70
2018-09-24T17:25:04.636Z,93939.87
2018-09-24T17:27:38.832Z,93950.64
2018-09-24T17:30:12.821Z,93951.20
2018-09-24T17:32:46.797Z,93959.13
2018-09-24T17:35:20.856Z,93964.89
2018-09-24T17:37:54.731Z,93968.88
2018-09-24T17:40:29.084Z,93983.67
2018-09-24T17:43:03.020Z,93984.03
2018-09-24T17:45:36.785Z,93983.92
2018-09-24T17:48:10.805Z,93985.48
2018-09-24T17:50:44.448Z,93990.13
2018-09-24T17:53:18.144Z,93989.38
2018-09-24T17:55:51.746Z,94005.30
2018-09-24T17:58:25.403Z,94007.97
2018-09-24T18:00:59.142Z,94007.88
2018-09-24T18:03:32.928Z,94010.44
2018-09-24T18:06:06.605Z,94018.91
2018-09-24T18:08:40.289Z,94020.95
2018-09-24T18:11:14.067Z,94030.38
2018-09-24T18:13:47.910Z,94031.67
2018-09-24T18:16:21.476Z,94035.79
2018-09-24T18:18:55.065Z,94037.52
2018-09-24T18:21:28.703Z,94034.92
2018-09-24T18:24:02.576Z,94041.86
2018-09-24T18:26:36.206Z,94040.87
2018-09-24T18:29:10.033Z,94045.21
2018-09-24T18:31:44.135Z,94047.02
2018-09-24T18:34:18.091Z,94050.92
2018-09-24T18:36:52.128Z,94070.50
2018-09-24T18:39:26.180Z,94070.38
2018-09-24T18:41:59.899Z,94078.05
2018-09-24T18:44:34.047Z,94080.50
2018-09-24T18:47:08.238Z,94081.47
2018-09-24T18:49:42.219Z,94097.27
2018-09-24T18:52:16.020Z,94097.14
2018-09-24T18:54:49.933Z,94099.11
2018-09-24T18:57:23.544Z,94092.88
2018-09-24T18:59:57.245Z,94098.70
2018-09-24T19:02:31.399Z,94102.47
2018-09-24T19:05:05.747Z,94098.26
2018-09-24T19:07:39.765Z,94107.83
2018-09-24T19:10:13.738Z,94111.25
2018-09-24T19:12:48.022Z,94113.83
2018-09-24T19:15:22.246Z,94114.12
2018-09-24T19:17:56.535Z,94116.23
2018-09-24T19:20:30.933Z,94116.56
2018-09-24T19:23:04.851Z,94123.77
2018-09-24T19:25:39.039Z,94123.69
2018-09-24T19:28:13.017Z,94127.22
2018-09-24T19:30:46.690Z,94132.20
2018-09-24T19:33:20.473Z,94126.88
2018-09-24T19:35:54.471Z,94126.47
2018-09-24T19:38:28.359Z,94122.58
2018-09-24T19:41:02.167Z,94126.12
2018-09-24T19:43:36.068Z,94126.55
2018-09-24T19:46:09.681Z,94124.34
2018-09-24T19:48:43.440Z,94118.32
2018-09-24T19:51:16.920Z,94127.56
2018-09-24T19:53:50.513Z,94124.42
2018-09-24T19:56:24.213Z,94128.79
2018-09-24T19:58:58.132Z,94137.13
2018-09-24T20:01:31.730Z,94130.02
2018-09-24T20:04:05.327Z,94134.46
2018-09-24T20:06:38.856Z,94142.65
2018-09-24T20:09:13.726Z,94147.30
2018-09-24T20:11:47.524Z,94147.52
2018-09-24T20:14:21.187Z,94163.29
2018-09-24T20:16:54.832Z,94161.22
2018-09-24T20:19:28.468Z,94170.09
2018-09-24T20:22:02.020Z,94169.86
2018-09-24T20:24:35.380Z,94175.50
2018-09-24T20:27:08.951Z,94178.31
2018-09-24T20:29:42.527Z,94178.30
2018-09-24T20:32:16.040Z,94186.47
2018-09-24T20:34:49.564Z,94189.59
2018-09-24T20:37:23.149Z,94187.41
2018-09-24T20:39:56.794Z,94180.12
2018-09-24T20:42:30.785Z,94190.55
2018-09-24T20:45:04.339Z,94183.00
2018-09-24T20:47:37.952Z,94195.45
2018-09-24T20:50:11.601Z,94205.04
2018-09-24T20:52:45.597Z,94210.93
2018-09-24T20:55:19.178Z,94208.44
2018-09-24T20:57:53.050Z,94214.45
2018-09-24T21:00:26.978Z,94221.57
2018-09-24T21:03:00.823Z,94215.87
2018-09-24T21:05:34.777Z,94227.55
2018-09-24T21:08:08.368Z,94236.36
2018-09-24T21:10:42.033Z,94237.27
2018-09-24T21:13:15.860Z,94241.66
2018-09-24T21:15:49.418Z,94233.50
2018-09-24T21:18:23.248Z,94236.63
2018-09-24T21:20:56.647Z,94236.98
2018-09-24T21:23:30.496Z,94240.91
2018-09-24T21:26:04.037Z,94237.84
2018-09-24T21:28:37.909Z,94243.70
2018-09-24T21:31:11.812Z,94240.63
2018-09-24T21:33:45.454Z,94239.34
2018-09-24T21:36:19.108Z,94246.95
2018-09-24T21:38:53.045Z,94239.59
2018-09-24T21:41:26.566Z,94252.59
2018-09-24T21:44:00.105Z,94250.52
2018-09-24T21:46:33.868Z,94244.39
2018-09-24T21:49:07.318Z,94248.59
2018-09-24T21:51:40.939Z,94241.09
2018-09-24T21:54:14.789Z,94248.96
2018-09-24T21:56:48.461Z,94253.57
2018-09-24T21:59:22.112Z,94259.27
2018-09-24T22:01:55.828Z,94266.31
2018-09-24T22:04:29.606Z,94275.17
2018-09-24T22:07:03.130Z,94279.92
2018-09-24T22:09:36.912Z,94285.16
2018-09-24T22:12:10.631Z,94288.43
2018-09-24T22:14:44.182Z,94279.89
2018-09-24T22:17:17.826Z,94265.85
2018-09-24T22:19:51.449Z,94267.20
2018-09-24T22:22:25.147Z,94268.09
2018-09-24T22:24:58.850Z,94274.66
2018-09-24T22:27:32.526Z,94278.39
2018-09-24T22:30:06.178Z,94282.20
2018-09-24T22:32:39.864Z,94287.64
2018-09-24T22:35:13.532Z,94289.05
2018-09-24T22:37:47.223Z,94280.83
2018-09-24T22:40:20.973Z,94279.99
2018-09-24T22:42:54.691Z,94287.38
2018-09-24T22:45:28.549Z,94293.66
2018-09-24T22:48:02.283Z,94297.84
2018-09-24T22:50:36.118Z,94298.41
2018-09-24T22:53:09.646Z,94300.84
2018-09-24T22:55:43.301Z,94299.59
2018-09-24T22:58:17.026Z,94296.53
2018-09-24T23:00:50.910Z,94295.97
2018-09-24T23:03:24.464Z,94299.70
2018-09-24T23:05:58.142Z,94303.12
2018-09-24T23:08:31.872Z,94294.32
2018-09-24T23:11:05.554Z,94306.42
2018-09-24T23:13:39.132Z,94309.73
2018-09-24T23:16:12.921Z,94306.44
2018-09-24T23:18:46.434Z,94311.10
2018-09-24T23:21:20.163Z,94316.73
2018-09-24T23:23:54.600Z,94318.08
2018-09-24T23:26:28.222Z,94317.05
2018-09-24T23:29:01.978Z,94321.45
2018-09-24T23:31:35.649Z,94323.91
2018-09-24T23:34:09.364Z,94323.72
2018-09-24T23:36:42.953Z,94317.30
2018-09-24T23:39:16.681Z,94320.88
2018-09-24T23:41:50.448Z,94318.80
2018-09-24T23:44:24.089Z,94322.11
2018-09-24T23:46:57.576Z,94323.34
2018-09-24T23:49:31.116Z,94324.95
2018-09-24T23:52:04.924Z,94328.70
2018-09-24T23:54:38.565Z,94328.58
2018-09-24T23:57:12.415Z,94329.41
2018-09-24T23:59:46.118Z,94322.11
